Flugplatz Seedorf

Für EDXS sind keine METAR/TAF Berichte vorhanden.
Es werden die Flugwettermeldungen vom Flugplatz Hamburg-Finkenwerder in 44 km Entfernung angezeigt.

Bericht für EDHI

vom 03.06. um 00:20 UTC

Wind 2 kt aus 50°

Sichtweite 10 km oder mehr

aufgebrochene Bewölkung in 22000 ft

Temperatur 17.0°C

Taupunkt 9.0°C

Luftfeuchtigkeit 59%

Luftdruck 1010 hPa

EDHI 030020Z AUTO 05002KT 9999 // BKN220/// 17/09 Q1010
Keine Prognose (TAF) verfügbar.
Impressum